sensor_id;sensor_type;location;lat;lon;timestamp;P1;durP1;ratioP1;P2;durP2;ratioP2
58222;SDS011;44020;50.890;15.796;2023-09-12T00:01:29;10.50;;;9.20;;
58222;SDS011;44020;50.890;15.796;2023-09-12T00:04:00;11.20;;;9.50;;
58222;SDS011;44020;50.890;15.796;2023-09-12T00:06:27;13.30;;;10.10;;
58222;SDS011;44020;50.890;15.796;2023-09-12T00:08:54;12.00;;;10.10;;
58222;SDS011;44020;50.890;15.796;2023-09-12T00:11:21;13.00;;;11.00;;
58222;SDS011;44020;50.890;15.796;2023-09-12T00:13:52;11.80;;;10.50;;
58222;SDS011;44020;50.890;15.796;2023-09-12T00:16:19;11.50;;;10.00;;
58222;SDS011;44020;50.890;15.796;2023-09-12T00:18:46;12.40;;;10.20;;
58222;SDS011;44020;50.890;15.796;2023-09-12T00:21:13;11.40;;;10.10;;
58222;SDS011;44020;50.890;15.796;2023-09-12T00:23:41;12.50;;;9.90;;
58222;SDS011;44020;50.890;15.796;2023-09-12T00:26:08;11.10;;;8.90;;
58222;SDS011;44020;50.890;15.796;2023-09-12T00:28:36;10.50;;;8.50;;
58222;SDS011;44020;50.890;15.796;2023-09-12T00:31:05;10.40;;;8.00;;
58222;SDS011;44020;50.890;15.796;2023-09-12T00:33:32;10.80;;;8.80;;
58222;SDS011;44020;50.890;15.796;2023-09-12T00:36:00;10.90;;;9.10;;
58222;SDS011;44020;50.890;15.796;2023-09-12T00:38:27;9.70;;;7.90;;
58222;SDS011;44020;50.890;15.796;2023-09-12T00:40:54;13.00;;;8.90;;
58222;SDS011;44020;50.890;15.796;2023-09-12T00:43:21;10.10;;;8.40;;
58222;SDS011;44020;50.890;15.796;2023-09-12T00:45:49;10.50;;;8.20;;
58222;SDS011;44020;50.890;15.796;2023-09-12T00:48:16;11.30;;;8.50;;
58222;SDS011;44020;50.890;15.796;2023-09-12T00:50:45;10.40;;;9.00;;
58222;SDS011;44020;50.890;15.796;2023-09-12T00:53:15;12.00;;;9.60;;
58222;SDS011;44020;50.890;15.796;2023-09-12T00:55:45;11.80;;;8.40;;
58222;SDS011;44020;50.890;15.796;2023-09-12T00:58:17;12.10;;;9.00;;
58222;SDS011;44020;50.890;15.796;2023-09-12T01:00:45;12.20;;;8.50;;
58222;SDS011;44020;50.890;15.796;2023-09-12T01:03:15;12.60;;;9.60;;
58222;SDS011;44020;50.890;15.796;2023-09-12T01:05:43;11.70;;;9.20;;
58222;SDS011;44020;50.890;15.796;2023-09-12T01:08:11;12.90;;;8.80;;
58222;SDS011;44020;50.890;15.796;2023-09-12T01:10:39;11.20;;;9.30;;
58222;SDS011;44020;50.890;15.796;2023-09-12T01:13:06;12.90;;;8.80;;
58222;SDS011;44020;50.890;15.796;2023-09-12T01:15:33;12.00;;;9.60;;
58222;SDS011;44020;50.890;15.796;2023-09-12T01:18:01;13.50;;;9.70;;
58222;SDS011;44020;50.890;15.796;2023-09-12T01:20:30;12.50;;;10.20;;
58222;SDS011;44020;50.890;15.796;2023-09-12T01:28:51;10.30;;;8.80;;
58222;SDS011;44020;50.890;15.796;2023-09-12T01:31:27;11.60;;;9.50;;
58222;SDS011;44020;50.890;15.796;2023-09-12T01:33:56;10.50;;;8.80;;
58222;SDS011;44020;50.890;15.796;2023-09-12T01:36:24;10.60;;;8.80;;
58222;SDS011;44020;50.890;15.796;2023-09-12T01:38:51;10.60;;;8.50;;
58222;SDS011;44020;50.890;15.796;2023-09-12T01:41:18;11.00;;;7.70;;
58222;SDS011;44020;50.890;15.796;2023-09-12T01:43:49;11.50;;;8.50;;
58222;SDS011;44020;50.890;15.796;2023-09-12T01:46:18;11.00;;;9.00;;
58222;SDS011;44020;50.890;15.796;2023-09-12T01:48:56;9.30;;;8.00;;
58222;SDS011;44020;50.890;15.796;2023-09-12T01:51:25;9.60;;;8.20;;
58222;SDS011;44020;50.890;15.796;2023-09-12T01:54:03;10.40;;;8.40;;
58222;SDS011;44020;50.890;15.796;2023-09-12T01:56:31;10.20;;;7.40;;
58222;SDS011;44020;50.890;15.796;2023-09-12T01:59:11;10.10;;;8.00;;
58222;SDS011;44020;50.890;15.796;2023-09-12T02:01:39;9.70;;;8.00;;
58222;SDS011;44020;50.890;15.796;2023-09-12T02:04:09;11.20;;;8.50;;
58222;SDS011;44020;50.890;15.796;2023-09-12T02:06:37;11.90;;;8.80;;
58222;SDS011;44020;50.890;15.796;2023-09-12T02:09:04;13.10;;;9.40;;
58222;SDS011;44020;50.890;15.796;2023-09-12T02:11:32;12.70;;;9.20;;
58222;SDS011;44020;50.890;15.796;2023-09-12T02:13:59;12.00;;;8.70;;
58222;SDS011;44020;50.890;15.796;2023-09-12T02:16:26;11.80;;;9.20;;
58222;SDS011;44020;50.890;15.796;2023-09-12T02:18:53;13.90;;;9.10;;
58222;SDS011;44020;50.890;15.796;2023-09-12T02:21:20;10.00;;;8.00;;
58222;SDS011;44020;50.890;15.796;2023-09-12T02:23:47;11.90;;;7.70;;
58222;SDS011;44020;50.890;15.796;2023-09-12T02:26:14;11.20;;;8.40;;
58222;SDS011;44020;50.890;15.796;2023-09-12T02:28:41;11.90;;;9.50;;
58222;SDS011;44020;50.890;15.796;2023-09-12T02:31:09;10.90;;;9.00;;
58222;SDS011;44020;50.890;15.796;2023-09-12T02:33:39;11.70;;;9.40;;
58222;SDS011;44020;50.890;15.796;2023-09-12T02:36:07;11.40;;;8.60;;
58222;SDS011;44020;50.890;15.796;2023-09-12T02:38:34;11.30;;;8.70;;
58222;SDS011;44020;50.890;15.796;2023-09-12T02:41:01;9.90;;;8.00;;
58222;SDS011;44020;50.890;15.796;2023-09-12T02:43:29;11.00;;;8.40;;
58222;SDS011;44020;50.890;15.796;2023-09-12T02:45:57;10.50;;;8.10;;
58222;SDS011;44020;50.890;15.796;2023-09-12T02:48:24;11.40;;;8.60;;
58222;SDS011;44020;50.890;15.796;2023-09-12T02:50:51;11.20;;;8.90;;
58222;SDS011;44020;50.890;15.796;2023-09-12T02:53:18;9.30;;;8.10;;
58222;SDS011;44020;50.890;15.796;2023-09-12T02:55:45;8.90;;;7.60;;
58222;SDS011;44020;50.890;15.796;2023-09-12T02:58:12;11.10;;;7.60;;
58222;SDS011;44020;50.890;15.796;2023-09-12T03:00:40;9.60;;;7.70;;
58222;SDS011;44020;50.890;15.796;2023-09-12T03:03:07;11.00;;;8.30;;
58222;SDS011;44020;50.890;15.796;2023-09-12T03:05:36;11.10;;;8.60;;
58222;SDS011;44020;50.890;15.796;2023-09-12T03:08:03;12.10;;;9.00;;
58222;SDS011;44020;50.890;15.796;2023-09-12T03:10:31;11.00;;;9.00;;
58222;SDS011;44020;50.890;15.796;2023-09-12T03:12:58;10.30;;;8.20;;
58222;SDS011;44020;50.890;15.796;2023-09-12T03:15:25;9.10;;;7.40;;
58222;SDS011;44020;50.890;15.796;2023-09-12T03:17:52;12.80;;;8.00;;
58222;SDS011;44020;50.890;15.796;2023-09-12T03:20:20;9.90;;;8.30;;
58222;SDS011;44020;50.890;15.796;2023-09-12T03:22:47;11.90;;;8.60;;
58222;SDS011;44020;50.890;15.796;2023-09-12T03:25:15;13.30;;;8.60;;
58222;SDS011;44020;50.890;15.796;2023-09-12T03:27:42;11.70;;;8.80;;
58222;SDS011;44020;50.890;15.796;2023-09-12T03:30:10;11.60;;;8.50;;
58222;SDS011;44020;50.890;15.796;2023-09-12T03:32:37;11.80;;;9.20;;
58222;SDS011;44020;50.890;15.796;2023-09-12T03:35:05;14.20;;;9.00;;
58222;SDS011;44020;50.890;15.796;2023-09-12T03:37:33;14.50;;;9.70;;
58222;SDS011;44020;50.890;15.796;2023-09-12T03:40:00;12.20;;;8.90;;
58222;SDS011;44020;50.890;15.796;2023-09-12T03:42:28;10.70;;;8.20;;
58222;SDS011;44020;50.890;15.796;2023-09-12T03:44:55;10.20;;;8.60;;
58222;SDS011;44020;50.890;15.796;2023-09-12T03:47:23;10.20;;;8.90;;
58222;SDS011;44020;50.890;15.796;2023-09-12T03:49:50;11.50;;;9.30;;
58222;SDS011;44020;50.890;15.796;2023-09-12T03:52:17;12.30;;;9.30;;
58222;SDS011;44020;50.890;15.796;2023-09-12T03:54:44;13.10;;;9.80;;
58222;SDS011;44020;50.890;15.796;2023-09-12T03:57:12;14.10;;;9.40;;
58222;SDS011;44020;50.890;15.796;2023-09-12T03:59:39;11.90;;;8.10;;
58222;SDS011;44020;50.890;15.796;2023-09-12T04:02:07;10.40;;;8.00;;
58222;SDS011;44020;50.890;15.796;2023-09-12T04:04:35;10.00;;;7.20;;
58222;SDS011;44020;50.890;15.796;2023-09-12T04:07:03;10.30;;;8.20;;
58222;SDS011;44020;50.890;15.796;2023-09-12T04:09:31;9.60;;;7.70;;
58222;SDS011;44020;50.890;15.796;2023-09-12T04:11:59;9.20;;;7.80;;
58222;SDS011;44020;50.890;15.796;2023-09-12T04:14:27;8.90;;;7.00;;
58222;SDS011;44020;50.890;15.796;2023-09-12T04:16:54;9.10;;;7.30;;
58222;SDS011;44020;50.890;15.796;2023-09-12T04:19:22;9.50;;;8.10;;
58222;SDS011;44020;50.890;15.796;2023-09-12T04:21:49;10.40;;;8.10;;
58222;SDS011;44020;50.890;15.796;2023-09-12T04:24:17;11.60;;;8.60;;
58222;SDS011;44020;50.890;15.796;2023-09-12T04:26:44;10.90;;;7.80;;
58222;SDS011;44020;50.890;15.796;2023-09-12T04:29:12;10.10;;;8.40;;
58222;SDS011;44020;50.890;15.796;2023-09-12T04:31:39;12.20;;;8.40;;
58222;SDS011;44020;50.890;15.796;2023-09-12T04:34:06;10.00;;;7.70;;
58222;SDS011;44020;50.890;15.796;2023-09-12T04:36:34;9.30;;;7.20;;
58222;SDS011;44020;50.890;15.796;2023-09-12T04:39:01;11.20;;;7.90;;
58222;SDS011;44020;50.890;15.796;2023-09-12T04:41:28;9.30;;;7.40;;
58222;SDS011;44020;50.890;15.796;2023-09-12T04:43:55;11.20;;;8.20;;
58222;SDS011;44020;50.890;15.796;2023-09-12T04:46:25;10.50;;;7.80;;
58222;SDS011;44020;50.890;15.796;2023-09-12T04:48:52;12.50;;;9.50;;
58222;SDS011;44020;50.890;15.796;2023-09-12T04:51:20;12.60;;;9.30;;
58222;SDS011;44020;50.890;15.796;2023-09-12T04:53:48;12.10;;;8.50;;
58222;SDS011;44020;50.890;15.796;2023-09-12T04:56:19;12.80;;;8.70;;
58222;SDS011;44020;50.890;15.796;2023-09-12T04:58:46;14.20;;;8.40;;
58222;SDS011;44020;50.890;15.796;2023-09-12T05:01:14;14.50;;;9.20;;
58222;SDS011;44020;50.890;15.796;2023-09-12T05:03:43;13.50;;;10.30;;
58222;SDS011;44020;50.890;15.796;2023-09-12T05:06:12;11.40;;;9.80;;
58222;SDS011;44020;50.890;15.796;2023-09-12T05:08:40;13.30;;;9.30;;
58222;SDS011;44020;50.890;15.796;2023-09-12T05:11:07;10.90;;;9.00;;
58222;SDS011;44020;50.890;15.796;2023-09-12T05:13:35;9.30;;;8.20;;
58222;SDS011;44020;50.890;15.796;2023-09-12T05:16:02;11.50;;;8.50;;
58222;SDS011;44020;50.890;15.796;2023-09-12T05:18:31;10.90;;;7.90;;
58222;SDS011;44020;50.890;15.796;2023-09-12T05:20:58;10.30;;;7.80;;
58222;SDS011;44020;50.890;15.796;2023-09-12T05:23:26;10.60;;;7.60;;
58222;SDS011;44020;50.890;15.796;2023-09-12T05:25:53;10.90;;;8.60;;
58222;SDS011;44020;50.890;15.796;2023-09-12T05:28:20;10.80;;;8.10;;
58222;SDS011;44020;50.890;15.796;2023-09-12T05:30:48;10.20;;;8.50;;
58222;SDS011;44020;50.890;15.796;2023-09-12T05:33:15;10.70;;;9.10;;
58222;SDS011;44020;50.890;15.796;2023-09-12T05:35:43;10.10;;;8.70;;
58222;SDS011;44020;50.890;15.796;2023-09-12T05:38:11;14.30;;;8.40;;
58222;SDS011;44020;50.890;15.796;2023-09-12T05:40:39;13.20;;;8.60;;
58222;SDS011;44020;50.890;15.796;2023-09-12T05:43:07;12.40;;;9.20;;
58222;SDS011;44020;50.890;15.796;2023-09-12T05:45:34;12.70;;;9.70;;
58222;SDS011;44020;50.890;15.796;2023-09-12T05:48:01;14.90;;;9.40;;
58222;SDS011;44020;50.890;15.796;2023-09-12T05:50:30;11.20;;;9.90;;
58222;SDS011;44020;50.890;15.796;2023-09-12T05:52:57;13.80;;;10.60;;
58222;SDS011;44020;50.890;15.796;2023-09-12T05:55:24;15.40;;;10.30;;
58222;SDS011;44020;50.890;15.796;2023-09-12T05:57:52;12.70;;;10.00;;
58222;SDS011;44020;50.890;15.796;2023-09-12T06:00:20;13.00;;;10.30;;
58222;SDS011;44020;50.890;15.796;2023-09-12T06:02:48;13.30;;;10.10;;
58222;SDS011;44020;50.890;15.796;2023-09-12T06:05:15;12.80;;;10.10;;
58222;SDS011;44020;50.890;15.796;2023-09-12T06:07:44;13.00;;;10.20;;
58222;SDS011;44020;50.890;15.796;2023-09-12T06:10:12;13.20;;;10.50;;
58222;SDS011;44020;50.890;15.796;2023-09-12T06:12:39;12.10;;;9.80;;
58222;SDS011;44020;50.890;15.796;2023-09-12T06:15:07;12.80;;;9.70;;
58222;SDS011;44020;50.890;15.796;2023-09-12T06:17:35;13.20;;;10.10;;
58222;SDS011;44020;50.890;15.796;2023-09-12T06:20:03;11.90;;;9.40;;
58222;SDS011;44020;50.890;15.796;2023-09-12T06:22:33;11.40;;;10.00;;
58222;SDS011;44020;50.890;15.796;2023-09-12T06:25:01;12.50;;;9.60;;
58222;SDS011;44020;50.890;15.796;2023-09-12T06:27:30;13.20;;;10.10;;
58222;SDS011;44020;50.890;15.796;2023-09-12T06:29:59;13.70;;;10.90;;
58222;SDS011;44020;50.890;15.796;2023-09-12T06:32:26;12.60;;;9.90;;
58222;SDS011;44020;50.890;15.796;2023-09-12T06:34:54;12.20;;;10.10;;
58222;SDS011;44020;50.890;15.796;2023-09-12T06:37:22;13.70;;;11.00;;
58222;SDS011;44020;50.890;15.796;2023-09-12T06:39:49;14.80;;;11.00;;
58222;SDS011;44020;50.890;15.796;2023-09-12T06:42:17;12.70;;;10.40;;
58222;SDS011;44020;50.890;15.796;2023-09-12T06:44:45;12.80;;;10.40;;
58222;SDS011;44020;50.890;15.796;2023-09-12T06:47:12;12.50;;;10.50;;
58222;SDS011;44020;50.890;15.796;2023-09-12T06:49:40;13.70;;;10.60;;
58222;SDS011;44020;50.890;15.796;2023-09-12T06:52:07;16.90;;;10.50;;
58222;SDS011;44020;50.890;15.796;2023-09-12T06:54:36;17.30;;;10.80;;
58222;SDS011;44020;50.890;15.796;2023-09-12T06:57:03;14.00;;;10.90;;
58222;SDS011;44020;50.890;15.796;2023-09-12T06:59:31;13.50;;;10.50;;
58222;SDS011;44020;50.890;15.796;2023-09-12T07:01:58;12.30;;;10.40;;
58222;SDS011;44020;50.890;15.796;2023-09-12T07:04:25;16.30;;;11.30;;
58222;SDS011;44020;50.890;15.796;2023-09-12T07:06:53;16.40;;;11.30;;
58222;SDS011;44020;50.890;15.796;2023-09-12T07:09:20;13.30;;;11.50;;
58222;SDS011;44020;50.890;15.796;2023-09-12T07:11:48;15.10;;;11.00;;
58222;SDS011;44020;50.890;15.796;2023-09-12T07:14:15;13.70;;;10.60;;
58222;SDS011;44020;50.890;15.796;2023-09-12T07:16:42;14.20;;;10.90;;
58222;SDS011;44020;50.890;15.796;2023-09-12T07:19:09;12.50;;;10.90;;
58222;SDS011;44020;50.890;15.796;2023-09-12T07:21:37;13.90;;;10.80;;
58222;SDS011;44020;50.890;15.796;2023-09-12T07:24:04;15.40;;;12.20;;
58222;SDS011;44020;50.890;15.796;2023-09-12T07:26:32;13.90;;;11.40;;
58222;SDS011;44020;50.890;15.796;2023-09-12T07:28:59;17.80;;;12.30;;
58222;SDS011;44020;50.890;15.796;2023-09-12T07:31:29;12.50;;;11.10;;
58222;SDS011;44020;50.890;15.796;2023-09-12T07:33:56;15.90;;;11.40;;
58222;SDS011;44020;50.890;15.796;2023-09-12T07:36:23;13.90;;;11.90;;
58222;SDS011;44020;50.890;15.796;2023-09-12T07:38:51;15.60;;;12.40;;
58222;SDS011;44020;50.890;15.796;2023-09-12T07:41:18;14.60;;;12.30;;
58222;SDS011;44020;50.890;15.796;2023-09-12T07:43:45;13.80;;;11.50;;
58222;SDS011;44020;50.890;15.796;2023-09-12T07:46:13;14.90;;;11.60;;
58222;SDS011;44020;50.890;15.796;2023-09-12T07:48:40;15.30;;;12.20;;
58222;SDS011;44020;50.890;15.796;2023-09-12T07:51:11;15.40;;;12.80;;
58222;SDS011;44020;50.890;15.796;2023-09-12T07:53:41;14.40;;;12.20;;
58222;SDS011;44020;50.890;15.796;2023-09-12T07:56:08;16.40;;;11.80;;
58222;SDS011;44020;50.890;15.796;2023-09-12T07:58:37;15.60;;;13.10;;
58222;SDS011;44020;50.890;15.796;2023-09-12T08:01:07;19.00;;;14.50;;
58222;SDS011;44020;50.890;15.796;2023-09-12T08:03:36;18.40;;;14.30;;
58222;SDS011;44020;50.890;15.796;2023-09-12T08:06:06;17.80;;;13.90;;
58222;SDS011;44020;50.890;15.796;2023-09-12T08:08:34;14.10;;;12.50;;
58222;SDS011;44020;50.890;15.796;2023-09-12T08:11:01;15.70;;;12.20;;
58222;SDS011;44020;50.890;15.796;2023-09-12T08:13:29;15.30;;;13.10;;
58222;SDS011;44020;50.890;15.796;2023-09-12T08:15:57;15.40;;;12.60;;
58222;SDS011;44020;50.890;15.796;2023-09-12T08:18:29;14.10;;;11.90;;
58222;SDS011;44020;50.890;15.796;2023-09-12T08:20:57;15.40;;;12.70;;
58222;SDS011;44020;50.890;15.796;2023-09-12T08:23:25;12.60;;;11.20;;
58222;SDS011;44020;50.890;15.796;2023-09-12T08:25:52;17.60;;;12.30;;
58222;SDS011;44020;50.890;15.796;2023-09-12T08:28:19;15.70;;;12.20;;
58222;SDS011;44020;50.890;15.796;2023-09-12T08:30:47;17.40;;;12.10;;
58222;SDS011;44020;50.890;15.796;2023-09-12T08:33:14;17.40;;;12.20;;
58222;SDS011;44020;50.890;15.796;2023-09-12T08:35:42;18.00;;;13.00;;
58222;SDS011;44020;50.890;15.796;2023-09-12T08:38:10;16.50;;;12.30;;
58222;SDS011;44020;50.890;15.796;2023-09-12T08:40:38;14.70;;;12.00;;
58222;SDS011;44020;50.890;15.796;2023-09-12T08:43:05;13.60;;;12.10;;
58222;SDS011;44020;50.890;15.796;2023-09-12T08:45:33;15.70;;;11.90;;
58222;SDS011;44020;50.890;15.796;2023-09-12T08:48:02;14.90;;;11.90;;
58222;SDS011;44020;50.890;15.796;2023-09-12T08:50:32;15.50;;;11.70;;
58222;SDS011;44020;50.890;15.796;2023-09-12T08:53:01;13.70;;;11.60;;
58222;SDS011;44020;50.890;15.796;2023-09-12T08:55:28;16.00;;;11.90;;
58222;SDS011;44020;50.890;15.796;2023-09-12T08:57:58;15.10;;;11.60;;
58222;SDS011;44020;50.890;15.796;2023-09-12T09:00:29;19.10;;;12.00;;
58222;SDS011;44020;50.890;15.796;2023-09-12T09:02:57;15.40;;;12.50;;
58222;SDS011;44020;50.890;15.796;2023-09-12T09:05:26;15.40;;;12.00;;
58222;SDS011;44020;50.890;15.796;2023-09-12T09:07:54;19.70;;;11.70;;
58222;SDS011;44020;50.890;15.796;2023-09-12T09:10:22;15.70;;;12.00;;
58222;SDS011;44020;50.890;15.796;2023-09-12T09:12:50;15.00;;;11.30;;
58222;SDS011;44020;50.890;15.796;2023-09-12T09:17:53;14.00;;;11.30;;
58222;SDS011;44020;50.890;15.796;2023-09-12T09:25:26;13.60;;;11.00;;
58222;SDS011;44020;50.890;15.796;2023-09-12T09:27:54;12.50;;;11.20;;
58222;SDS011;44020;50.890;15.796;2023-09-12T09:30:41;16.90;;;10.70;;
58222;SDS011;44020;50.890;15.796;2023-09-12T09:33:14;15.10;;;11.20;;
58222;SDS011;44020;50.890;15.796;2023-09-12T09:35:42;11.90;;;10.50;;
58222;SDS011;44020;50.890;15.796;2023-09-12T09:38:12;14.30;;;11.20;;
58222;SDS011;44020;50.890;15.796;2023-09-12T09:40:43;13.60;;;11.10;;
58222;SDS011;44020;50.890;15.796;2023-09-12T09:43:11;13.60;;;10.80;;
58222;SDS011;44020;50.890;15.796;2023-09-12T09:45:44;13.50;;;10.90;;
58222;SDS011;44020;50.890;15.796;2023-09-12T09:48:22;13.10;;;10.60;;
58222;SDS011;44020;50.890;15.796;2023-09-12T09:50:59;13.00;;;10.30;;
58222;SDS011;44020;50.890;15.796;2023-09-12T09:53:30;14.00;;;9.90;;
58222;SDS011;44020;50.890;15.796;2023-09-12T09:58:46;11.80;;;9.60;;
58222;SDS011;44020;50.890;15.796;2023-09-12T10:01:21;11.20;;;9.50;;
58222;SDS011;44020;50.890;15.796;2023-09-12T10:03:51;11.50;;;9.20;;
58222;SDS011;44020;50.890;15.796;2023-09-12T10:06:20;10.40;;;9.00;;
58222;SDS011;44020;50.890;15.796;2023-09-12T10:08:50;12.10;;;9.10;;
58222;SDS011;44020;50.890;15.796;2023-09-12T10:11:23;9.90;;;8.70;;
58222;SDS011;44020;50.890;15.796;2023-09-12T10:13:54;11.10;;;9.20;;
58222;SDS011;44020;50.890;15.796;2023-09-12T10:16:29;12.40;;;9.10;;
58222;SDS011;44020;50.890;15.796;2023-09-12T10:19:15;13.40;;;8.30;;
58222;SDS011;44020;50.890;15.796;2023-09-12T10:21:46;8.60;;;7.70;;
58222;SDS011;44020;50.890;15.796;2023-09-12T10:24:17;8.90;;;8.00;;
58222;SDS011;44020;50.890;15.796;2023-09-12T10:26:48;9.30;;;7.60;;
58222;SDS011;44020;50.890;15.796;2023-09-12T10:29:17;9.90;;;7.60;;
58222;SDS011;44020;50.890;15.796;2023-09-12T10:31:44;11.10;;;7.40;;
58222;SDS011;44020;50.890;15.796;2023-09-12T10:34:13;9.50;;;7.40;;
58222;SDS011;44020;50.890;15.796;2023-09-12T10:36:42;8.80;;;6.90;;
58222;SDS011;44020;50.890;15.796;2023-09-12T10:39:10;11.30;;;7.50;;
58222;SDS011;44020;50.890;15.796;2023-09-12T10:41:41;10.80;;;8.30;;
58222;SDS011;44020;50.890;15.796;2023-09-12T10:44:09;8.70;;;7.80;;
58222;SDS011;44020;50.890;15.796;2023-09-12T10:46:38;8.40;;;6.90;;
58222;SDS011;44020;50.890;15.796;2023-09-12T10:49:08;8.60;;;7.40;;
58222;SDS011;44020;50.890;15.796;2023-09-12T10:51:44;8.40;;;7.50;;
58222;SDS011;44020;50.890;15.796;2023-09-12T10:54:13;9.30;;;7.70;;
58222;SDS011;44020;50.890;15.796;2023-09-12T10:56:42;9.20;;;7.40;;
58222;SDS011;44020;50.890;15.796;2023-09-12T10:59:12;9.00;;;7.70;;
58222;SDS011;44020;50.890;15.796;2023-09-12T11:01:40;8.70;;;7.40;;
58222;SDS011;44020;50.890;15.796;2023-09-12T11:06:50;9.20;;;7.00;;
58222;SDS011;44020;50.890;15.796;2023-09-12T11:09:18;12.50;;;8.30;;
58222;SDS011;44020;50.890;15.796;2023-09-12T11:11:54;9.40;;;8.00;;
58222;SDS011;44020;50.890;15.796;2023-09-12T11:14:24;10.40;;;8.00;;
58222;SDS011;44020;50.890;15.796;2023-09-12T11:19:44;9.30;;;7.30;;
58222;SDS011;44020;50.890;15.796;2023-09-12T11:24:48;8.50;;;7.60;;
58222;SDS011;44020;50.890;15.796;2023-09-12T11:27:16;11.10;;;7.80;;
58222;SDS011;44020;50.890;15.796;2023-09-12T11:29:44;8.10;;;7.20;;
58222;SDS011;44020;50.890;15.796;2023-09-12T11:32:24;8.70;;;7.70;;
58222;SDS011;44020;50.890;15.796;2023-09-12T11:34:59;8.40;;;7.50;;
58222;SDS011;44020;50.890;15.796;2023-09-12T11:37:31;9.60;;;7.40;;
58222;SDS011;44020;50.890;15.796;2023-09-12T11:40:00;8.90;;;7.20;;
58222;SDS011;44020;50.890;15.796;2023-09-12T11:42:28;10.00;;;7.90;;
58222;SDS011;44020;50.890;15.796;2023-09-12T11:44:56;9.00;;;7.60;;
58222;SDS011;44020;50.890;15.796;2023-09-12T11:47:24;8.70;;;7.30;;
58222;SDS011;44020;50.890;15.796;2023-09-12T11:49:52;8.90;;;7.30;;
58222;SDS011;44020;50.890;15.796;2023-09-12T11:52:19;8.50;;;7.60;;
58222;SDS011;44020;50.890;15.796;2023-09-12T11:54:48;11.00;;;7.50;;
58222;SDS011;44020;50.890;15.796;2023-09-12T11:57:15;8.30;;;7.40;;
58222;SDS011;44020;50.890;15.796;2023-09-12T11:59:53;7.80;;;6.80;;
58222;SDS011;44020;50.890;15.796;2023-09-12T12:02:24;11.00;;;8.50;;
58222;SDS011;44020;50.890;15.796;2023-09-12T12:04:52;11.60;;;7.80;;
58222;SDS011;44020;50.890;15.796;2023-09-12T12:07:21;10.90;;;7.90;;
58222;SDS011;44020;50.890;15.796;2023-09-12T12:09:48;12.50;;;8.30;;
58222;SDS011;44020;50.890;15.796;2023-09-12T12:12:17;8.90;;;7.90;;
58222;SDS011;44020;50.890;15.796;2023-09-12T12:14:44;10.80;;;8.20;;
58222;SDS011;44020;50.890;15.796;2023-09-12T12:17:12;11.60;;;7.60;;
58222;SDS011;44020;50.890;15.796;2023-09-12T12:19:44;9.80;;;7.90;;
58222;SDS011;44020;50.890;15.796;2023-09-12T12:22:12;13.50;;;8.30;;
58222;SDS011;44020;50.890;15.796;2023-09-12T12:24:41;9.40;;;8.00;;
58222;SDS011;44020;50.890;15.796;2023-09-12T12:29:43;8.00;;;6.70;;
58222;SDS011;44020;50.890;15.796;2023-09-12T12:34:58;10.00;;;8.00;;
58222;SDS011;44020;50.890;15.796;2023-09-12T12:37:28;8.90;;;8.00;;
58222;SDS011;44020;50.890;15.796;2023-09-12T12:39:57;8.00;;;7.20;;
58222;SDS011;44020;50.890;15.796;2023-09-12T12:42:28;8.90;;;7.40;;
58222;SDS011;44020;50.890;15.796;2023-09-12T12:45:00;7.70;;;6.90;;
58222;SDS011;44020;50.890;15.796;2023-09-12T12:47:28;8.20;;;7.40;;
58222;SDS011;44020;50.890;15.796;2023-09-12T12:49:59;11.00;;;7.90;;
58222;SDS011;44020;50.890;15.796;2023-09-12T12:52:26;8.10;;;7.20;;
58222;SDS011;44020;50.890;15.796;2023-09-12T12:55:02;9.30;;;7.70;;
58222;SDS011;44020;50.890;15.796;2023-09-12T12:57:37;11.50;;;7.50;;
58222;SDS011;44020;50.890;15.796;2023-09-12T13:00:09;8.20;;;7.40;;
58222;SDS011;44020;50.890;15.796;2023-09-12T13:05:06;9.80;;;6.80;;
58222;SDS011;44020;50.890;15.796;2023-09-12T13:07:46;8.00;;;7.20;;
58222;SDS011;44020;50.890;15.796;2023-09-12T13:10:13;8.10;;;7.10;;
58222;SDS011;44020;50.890;15.796;2023-09-12T13:12:40;8.70;;;7.80;;
58222;SDS011;44020;50.890;15.796;2023-09-12T13:15:08;7.80;;;6.80;;
58222;SDS011;44020;50.890;15.796;2023-09-12T13:17:35;11.70;;;8.40;;
58222;SDS011;44020;50.890;15.796;2023-09-12T13:20:03;9.30;;;7.60;;
58222;SDS011;44020;50.890;15.796;2023-09-12T13:22:31;9.50;;;8.00;;
58222;SDS011;44020;50.890;15.796;2023-09-12T13:25:01;8.60;;;7.80;;
58222;SDS011;44020;50.890;15.796;2023-09-12T13:27:29;10.00;;;7.40;;
58222;SDS011;44020;50.890;15.796;2023-09-12T13:29:57;7.90;;;6.80;;
58222;SDS011;44020;50.890;15.796;2023-09-12T13:32:30;12.10;;;8.30;;
58222;SDS011;44020;50.890;15.796;2023-09-12T13:35:00;9.10;;;7.30;;
58222;SDS011;44020;50.890;15.796;2023-09-12T13:37:35;10.80;;;7.80;;
58222;SDS011;44020;50.890;15.796;2023-09-12T13:40:24;9.80;;;7.70;;
58222;SDS011;44020;50.890;15.796;2023-09-12T13:42:51;9.10;;;7.20;;
58222;SDS011;44020;50.890;15.796;2023-09-12T13:45:30;8.60;;;7.00;;
58222;SDS011;44020;50.890;15.796;2023-09-12T13:48:00;11.10;;;7.30;;
58222;SDS011;44020;50.890;15.796;2023-09-12T13:50:31;7.80;;;7.10;;
58222;SDS011;44020;50.890;15.796;2023-09-12T13:53:02;7.70;;;7.00;;
58222;SDS011;44020;50.890;15.796;2023-09-12T13:55:44;9.20;;;7.00;;
58222;SDS011;44020;50.890;15.796;2023-09-12T13:58:14;8.20;;;6.90;;
58222;SDS011;44020;50.890;15.796;2023-09-12T14:00:42;12.00;;;7.00;;
58222;SDS011;44020;50.890;15.796;2023-09-12T14:03:09;9.20;;;6.60;;
58222;SDS011;44020;50.890;15.796;2023-09-12T14:05:37;8.00;;;7.00;;
58222;SDS011;44020;50.890;15.796;2023-09-12T14:08:07;10.00;;;6.70;;
58222;SDS011;44020;50.890;15.796;2023-09-12T14:10:35;8.40;;;6.90;;
58222;SDS011;44020;50.890;15.796;2023-09-12T14:13:02;8.40;;;7.00;;
58222;SDS011;44020;50.890;15.796;2023-09-12T14:15:39;7.40;;;6.70;;
58222;SDS011;44020;50.890;15.796;2023-09-12T14:18:07;7.80;;;7.00;;
58222;SDS011;44020;50.890;15.796;2023-09-12T14:20:34;8.50;;;7.60;;
58222;SDS011;44020;50.890;15.796;2023-09-12T14:23:02;9.50;;;6.80;;
58222;SDS011;44020;50.890;15.796;2023-09-12T14:25:30;10.50;;;7.30;;
58222;SDS011;44020;50.890;15.796;2023-09-12T14:28:17;9.10;;;7.10;;
58222;SDS011;44020;50.890;15.796;2023-09-12T14:30:45;7.40;;;6.60;;
58222;SDS011;44020;50.890;15.796;2023-09-12T14:33:13;8.00;;;6.60;;
58222;SDS011;44020;50.890;15.796;2023-09-12T14:35:40;6.80;;;6.10;;
58222;SDS011;44020;50.890;15.796;2023-09-12T14:38:08;7.60;;;6.80;;
58222;SDS011;44020;50.890;15.796;2023-09-12T14:40:36;8.70;;;6.50;;
58222;SDS011;44020;50.890;15.796;2023-09-12T14:43:04;7.50;;;6.70;;
58222;SDS011;44020;50.890;15.796;2023-09-12T14:45:32;8.20;;;6.60;;
58222;SDS011;44020;50.890;15.796;2023-09-12T14:48:01;9.80;;;6.60;;
58222;SDS011;44020;50.890;15.796;2023-09-12T14:50:28;6.60;;;6.00;;
58222;SDS011;44020;50.890;15.796;2023-09-12T14:52:57;7.00;;;6.20;;
58222;SDS011;44020;50.890;15.796;2023-09-12T14:55:24;7.90;;;6.10;;
58222;SDS011;44020;50.890;15.796;2023-09-12T14:57:52;6.80;;;6.10;;
58222;SDS011;44020;50.890;15.796;2023-09-12T15:00:21;7.10;;;6.40;;
58222;SDS011;44020;50.890;15.796;2023-09-12T15:02:50;8.10;;;6.40;;